createdAt,value
2022-10-28T00:01:36.802Z,13.69
2022-10-28T00:04:06.077Z,13.74
2022-10-28T00:06:37.769Z,13.74
2022-10-28T00:09:09.782Z,13.78
2022-10-28T00:11:41.271Z,13.75
2022-10-28T00:14:10.951Z,13.81
2022-10-28T00:16:40.130Z,13.84
2022-10-28T00:19:12.163Z,13.77
2022-10-28T00:21:44.160Z,13.74
2022-10-28T00:24:14.583Z,13.72
2022-10-28T00:26:44.759Z,13.68
2022-10-28T00:29:15.919Z,13.71
2022-10-28T00:31:45.807Z,13.66
2022-10-28T00:34:17.020Z,13.70
2022-10-28T00:36:48.586Z,13.69
2022-10-28T00:39:19.159Z,13.65
2022-10-28T00:41:51.097Z,13.64
2022-10-28T00:44:42.508Z,13.51
2022-10-28T00:47:18.591Z,13.40
2022-10-28T00:49:50.455Z,13.29
2022-10-28T00:52:25.402Z,13.28
2022-10-28T00:54:55.848Z,13.27
2022-10-28T00:57:29.469Z,13.33
2022-10-28T00:59:59.724Z,13.29
2022-10-28T01:02:29.073Z,13.23
2022-10-28T01:04:58.052Z,13.29
2022-10-28T01:07:28.321Z,13.21
2022-10-28T01:09:57.695Z,13.23
2022-10-28T01:12:34.993Z,13.21
2022-10-28T01:15:13.789Z,13.22
2022-10-28T01:17:56.038Z,13.17
2022-10-28T01:20:48.332Z,13.16
2022-10-28T01:23:27.399Z,13.08
2022-10-28T01:26:35.231Z,13.05
2022-10-28T01:29:41.090Z,13.00
2022-10-28T01:32:18.218Z,12.90
2022-10-28T01:34:58.120Z,12.80
2022-10-28T01:37:36.208Z,12.70
2022-10-28T01:40:12.570Z,12.62
2022-10-28T01:42:47.320Z,12.54
2022-10-28T01:45:21.126Z,12.56
2022-10-28T01:47:58.085Z,12.52
2022-10-28T01:50:33.469Z,12.60
2022-10-28T01:53:08.800Z,12.61
2022-10-28T01:55:40.190Z,12.55
2022-10-28T01:58:12.727Z,12.53
2022-10-28T02:00:43.882Z,12.46
2022-10-28T02:03:14.323Z,12.43
2022-10-28T02:05:45.807Z,12.58
2022-10-28T02:08:34.292Z,12.51
2022-10-28T02:11:19.203Z,12.45
2022-10-28T02:14:00.974Z,12.53
2022-10-28T02:16:39.117Z,12.44
2022-10-28T02:19:16.699Z,12.40
2022-10-28T02:21:57.675Z,12.48
2022-10-28T02:24:39.391Z,12.43
2022-10-28T02:27:14.535Z,12.44
2022-10-28T02:29:48.408Z,12.39
2022-10-28T02:32:21.586Z,12.37
2022-10-28T02:34:56.283Z,12.35
2022-10-28T02:37:30.469Z,12.38
2022-10-28T02:40:04.560Z,12.52
2022-10-28T02:42:37.768Z,12.35
2022-10-28T02:45:12.808Z,12.39
2022-10-28T02:47:45.555Z,12.29
2022-10-28T02:50:21.244Z,12.13
2022-10-28T02:52:54.245Z,12.14
2022-10-28T02:55:26.149Z,12.03
2022-10-28T02:57:55.417Z,12.00
2022-10-28T03:00:25.520Z,11.89
2022-10-28T03:02:54.441Z,11.87
2022-10-28T03:05:24.774Z,11.91
2022-10-28T03:07:54.043Z,12.03
2022-10-28T03:10:23.197Z,11.87
2022-10-28T03:12:52.123Z,11.87
2022-10-28T03:15:21.002Z,11.76
2022-10-28T03:17:49.969Z,11.71
2022-10-28T03:20:18.941Z,11.67
2022-10-28T03:22:50.957Z,11.67
2022-10-28T03:25:20.041Z,12.02
2022-10-28T03:27:48.928Z,12.02
2022-10-28T03:30:18.441Z,12.03
2022-10-28T03:32:47.453Z,12.21
2022-10-28T03:35:16.542Z,12.45
2022-10-28T03:37:45.768Z,12.53
2022-10-28T03:40:16.210Z,12.55
2022-10-28T03:42:45.561Z,12.53
2022-10-28T03:45:14.553Z,12.54
2022-10-28T03:47:44.249Z,12.66
2022-10-28T03:50:13.238Z,12.68
2022-10-28T03:52:43.528Z,12.67
2022-10-28T03:55:12.523Z,12.76
2022-10-28T03:57:42.777Z,12.82
2022-10-28T04:00:12.614Z,12.92
2022-10-28T04:02:41.523Z,12.98
2022-10-28T04:05:10.594Z,13.03
2022-10-28T04:07:39.492Z,13.06
2022-10-28T04:10:08.873Z,13.11
2022-10-28T04:12:38.050Z,13.00
2022-10-28T04:15:09.195Z,13.12
2022-10-28T04:17:38.097Z,13.14
2022-10-28T04:20:08.170Z,13.19
2022-10-28T04:22:37.087Z,13.20
2022-10-28T04:25:06.566Z,13.19
2022-10-28T04:27:35.536Z,13.23
2022-10-28T04:30:05.582Z,13.23
2022-10-28T04:32:35.857Z,13.28
2022-10-28T04:35:05.217Z,13.32
2022-10-28T04:37:34.219Z,13.32
2022-10-28T04:40:03.263Z,13.29
2022-10-28T04:42:32.189Z,13.29
2022-10-28T04:45:01.099Z,13.31
2022-10-28T04:47:30.052Z,13.33
2022-10-28T04:50:00.350Z,13.34
2022-10-28T04:52:29.271Z,13.35
2022-10-28T04:54:58.232Z,13.35
2022-10-28T04:57:27.272Z,13.35
2022-10-28T04:59:56.223Z,13.32
2022-10-28T05:02:25.320Z,13.28
2022-10-28T05:04:54.302Z,13.27
2022-10-28T05:07:24.599Z,13.27
2022-10-28T05:09:53.504Z,13.18
2022-10-28T05:12:22.741Z,13.21
2022-10-28T05:14:53.150Z,13.17
2022-10-28T05:17:22.208Z,13.20
2022-10-28T05:19:51.175Z,13.17
2022-10-28T05:22:20.090Z,13.21
2022-10-28T05:24:50.611Z,13.18
2022-10-28T05:27:19.515Z,13.15
2022-10-28T05:29:48.456Z,13.23
2022-10-28T05:32:17.401Z,13.16
2022-10-28T05:34:46.293Z,13.19
2022-10-28T05:37:15.199Z,13.12
2022-10-28T05:39:44.189Z,13.06
2022-10-28T05:42:14.469Z,12.99
2022-10-28T05:44:43.510Z,13.03
2022-10-28T05:47:12.456Z,13.03
2022-10-28T05:49:41.433Z,12.97
2022-10-28T05:52:10.442Z,13.01
2022-10-28T05:54:39.423Z,13.00
2022-10-28T05:57:08.345Z,12.96
2022-10-28T05:59:38.601Z,12.88
2022-10-28T06:02:11.035Z,12.89
2022-10-28T06:04:39.931Z,12.90
2022-10-28T06:07:09.130Z,12.95
2022-10-28T06:09:38.126Z,12.89
2022-10-28T06:12:06.923Z,12.85
2022-10-28T06:14:37.179Z,12.80
2022-10-28T06:17:06.152Z,12.79
2022-10-28T06:19:35.099Z,12.75
2022-10-28T06:22:04.213Z,12.77
2022-10-28T06:24:33.133Z,12.77
2022-10-28T06:27:02.050Z,12.72
2022-10-28T06:29:31.038Z,12.71
2022-10-28T06:32:01.345Z,12.73
2022-10-28T06:34:30.283Z,12.77
2022-10-28T06:36:59.218Z,12.75
2022-10-28T06:39:28.155Z,12.72
2022-10-28T06:41:57.069Z,12.82
2022-10-28T06:44:26.159Z,12.86
2022-10-28T06:46:57.378Z,12.86
2022-10-28T06:49:28.511Z,12.89
2022-10-28T06:51:57.442Z,12.95
2022-10-28T06:54:26.364Z,12.96
2022-10-28T06:56:55.299Z,12.97
2022-10-28T06:59:24.276Z,12.96
2022-10-28T07:01:53.269Z,13.01
2022-10-28T07:04:22.349Z,13.03
2022-10-28T07:06:56.496Z,13.07
2022-10-28T07:09:25.451Z,13.08
2022-10-28T07:11:55.333Z,13.13
2022-10-28T07:14:24.577Z,13.16
2022-10-28T07:16:53.621Z,13.18
2022-10-28T07:19:22.790Z,13.23
2022-10-28T07:21:53.096Z,13.28
2022-10-28T07:24:22.065Z,13.34
2022-10-28T07:26:53.052Z,13.37
2022-10-28T07:29:24.473Z,13.48
2022-10-28T07:31:56.013Z,13.47
2022-10-28T07:34:27.224Z,13.54
2022-10-28T07:36:58.118Z,13.66
2022-10-28T07:39:28.445Z,13.73
2022-10-28T07:41:57.452Z,13.84
2022-10-28T07:44:26.386Z,13.89
2022-10-28T07:46:58.015Z,13.96
2022-10-28T07:49:27.501Z,14.03
2022-10-28T07:51:57.964Z,14.09
2022-10-28T07:54:26.925Z,14.19
2022-10-28T07:56:55.823Z,14.27
2022-10-28T07:59:26.915Z,14.36
2022-10-28T08:01:56.383Z,14.49
2022-10-28T08:04:25.435Z,14.49
2022-10-28T08:09:24.939Z,14.69
2022-10-28T08:11:57.605Z,14.82
2022-10-28T08:14:26.521Z,14.87
2022-10-28T08:16:55.400Z,14.94
2022-10-28T08:19:24.337Z,15.12
2022-10-28T08:21:53.259Z,15.19
2022-10-28T08:24:22.230Z,15.34
2022-10-28T08:26:52.567Z,15.42
2022-10-28T08:29:23.412Z,15.51
2022-10-28T08:31:55.193Z,15.58
2022-10-28T08:34:24.175Z,15.75
2022-10-28T08:36:53.200Z,15.85
2022-10-28T08:39:22.248Z,15.95
2022-10-28T08:41:56.927Z,16.02
2022-10-28T08:44:49.062Z,16.14
2022-10-28T08:47:30.833Z,16.26
2022-10-28T08:50:04.537Z,16.32
2022-10-28T08:52:40.247Z,16.49
2022-10-28T08:55:16.041Z,16.64
2022-10-28T08:57:51.863Z,16.85
2022-10-28T09:00:24.257Z,17.38
2022-10-28T09:03:06.640Z,17.56
2022-10-28T09:05:36.016Z,17.79
2022-10-28T09:08:05.679Z,17.98
2022-10-28T09:10:56.399Z,17.82
2022-10-28T09:13:39.986Z,17.92
2022-10-28T09:16:16.172Z,18.06
2022-10-28T09:18:53.830Z,18.35
2022-10-28T09:21:32.712Z,18.40
2022-10-28T09:24:08.841Z,18.51
2022-10-28T09:26:48.877Z,18.27
2022-10-28T09:29:37.175Z,18.23
2022-10-28T09:32:18.059Z,18.16
2022-10-28T09:34:50.918Z,18.14
2022-10-28T09:37:23.840Z,18.16
2022-10-28T09:39:56.797Z,18.28
2022-10-28T09:42:30.484Z,18.30
2022-10-28T09:45:05.992Z,18.49
2022-10-28T09:47:40.050Z,18.40
2022-10-28T09:50:20.004Z,18.53
2022-10-28T09:52:56.380Z,18.58
2022-10-28T09:55:25.685Z,18.61
2022-10-28T09:57:54.906Z,18.75
2022-10-28T10:00:25.568Z,18.82
2022-10-28T10:02:58.503Z,18.82
2022-10-28T10:05:27.945Z,18.65
2022-10-28T10:07:59.978Z,18.77
2022-10-28T10:10:33.288Z,19.05
2022-10-28T10:13:05.671Z,19.10
2022-10-28T10:15:39.909Z,19.14
2022-10-28T10:18:16.701Z,19.25
2022-10-28T10:20:52.482Z,19.33
2022-10-28T10:23:28.816Z,19.58
2022-10-28T10:26:00.995Z,19.84
2022-10-28T10:28:31.402Z,20.15
2022-10-28T10:31:03.984Z,20.20
2022-10-28T10:33:35.745Z,20.45
2022-10-28T10:36:17.298Z,20.28
2022-10-28T10:38:50.206Z,20.64
2022-10-28T10:41:35.329Z,20.97
2022-10-28T10:44:24.726Z,20.95
2022-10-28T10:47:19.387Z,20.92
2022-10-28T10:49:49.750Z,21.24
2022-10-28T10:52:22.671Z,21.22
2022-10-28T10:55:04.478Z,21.36
2022-10-28T10:57:34.690Z,21.58
2022-10-28T11:00:04.565Z,21.35
2022-10-28T11:02:39.698Z,22.12
2022-10-28T11:05:11.487Z,21.84
2022-10-28T11:07:48.745Z,21.61
2022-10-28T11:10:25.596Z,22.12
2022-10-28T11:12:57.046Z,22.05
2022-10-28T11:15:28.909Z,22.37
2022-10-28T11:18:01.801Z,21.90
2022-10-28T11:20:40.749Z,22.06
2022-10-28T11:23:23.662Z,22.24
2022-10-28T11:25:55.777Z,22.22
2022-10-28T11:28:56.837Z,22.49
2022-10-28T11:31:40.675Z,22.45
2022-10-28T11:34:30.133Z,22.26
2022-10-28T11:37:09.439Z,21.97
2022-10-28T11:39:50.795Z,21.57
2022-10-28T11:42:32.473Z,21.65
2022-10-28T11:45:10.009Z,21.95
2022-10-28T11:47:55.671Z,22.51
2022-10-28T11:50:36.221Z,22.82
2022-10-28T11:53:37.952Z,22.55
2022-10-28T11:56:18.485Z,22.60
2022-10-28T11:58:57.429Z,22.31
2022-10-28T12:01:49.692Z,21.78
2022-10-28T12:04:33.963Z,21.51
2022-10-28T12:07:23.927Z,21.43
2022-10-28T12:10:08.262Z,21.38
2022-10-28T12:12:47.270Z,21.46
2022-10-28T12:15:26.659Z,21.54
2022-10-28T12:18:06.291Z,21.77
2022-10-28T12:20:43.328Z,21.70
2022-10-28T12:23:17.911Z,22.07
2022-10-28T12:25:52.553Z,21.81
2022-10-28T12:28:25.946Z,21.98
2022-10-28T12:30:57.335Z,21.84
2022-10-28T12:33:28.662Z,21.68
2022-10-28T12:36:20.046Z,21.31
2022-10-28T12:38:57.417Z,21.19
2022-10-28T12:41:31.918Z,21.30
2022-10-28T12:44:05.554Z,21.16
2022-10-28T12:49:32.660Z,21.33
2022-10-28T12:52:08.785Z,21.27
2022-10-28T12:54:53.689Z,21.22
2022-10-28T12:57:25.667Z,21.14
2022-10-28T13:00:00.710Z,21.01
2022-10-28T13:02:36.479Z,20.91
2022-10-28T13:05:06.806Z,20.84
2022-10-28T13:07:58.535Z,21.22
2022-10-28T13:10:38.236Z,21.35
2022-10-28T13:13:33.576Z,21.17
2022-10-28T13:16:14.547Z,21.30
2022-10-28T13:19:18.600Z,21.55
2022-10-28T13:22:07.190Z,21.44
2022-10-28T13:24:50.345Z,21.36
2022-10-28T13:27:22.991Z,21.39
2022-10-28T13:29:54.463Z,21.68
2022-10-28T13:32:38.616Z,21.66
2022-10-28T13:35:22.063Z,21.33
2022-10-28T13:37:54.063Z,21.42
2022-10-28T13:40:40.040Z,21.24
2022-10-28T13:43:19.783Z,21.21
2022-10-28T13:45:52.472Z,21.04
2022-10-28T13:48:49.193Z,20.93
2022-10-28T13:51:48.769Z,20.80
2022-10-28T13:54:53.504Z,20.95
2022-10-28T13:57:29.679Z,20.81
2022-10-28T14:00:02.104Z,20.73
2022-10-28T14:02:38.705Z,20.66
2022-10-28T14:05:10.189Z,20.73
2022-10-28T14:07:51.297Z,20.52
2022-10-28T14:10:26.385Z,20.52
2022-10-28T14:12:58.464Z,20.50
2022-10-28T14:15:34.772Z,20.45
2022-10-28T14:18:37.283Z,20.38
2022-10-28T14:21:01.362Z,20.33
2022-10-28T14:24:06.598Z,20.20
2022-10-28T14:27:20.297Z,20.07
2022-10-28T14:29:51.334Z,20.00
2022-10-28T14:32:44.435Z,19.94
2022-10-28T14:35:29.345Z,19.92
2022-10-28T14:38:32.932Z,19.84
2022-10-28T14:41:16.907Z,19.79
2022-10-28T14:43:58.874Z,19.81
2022-10-28T14:46:41.626Z,19.71
2022-10-28T14:49:21.332Z,19.72
2022-10-28T14:51:52.095Z,19.67
2022-10-28T14:54:40.884Z,19.67
2022-10-28T14:57:10.424Z,19.66
2022-10-28T14:59:41.523Z,19.64
2022-10-28T15:02:14.558Z,19.61
2022-10-28T15:04:47.388Z,19.59
2022-10-28T15:07:19.266Z,19.56
2022-10-28T15:09:53.307Z,19.49
2022-10-28T15:12:25.954Z,19.41
2022-10-28T15:14:57.365Z,19.32
2022-10-28T15:17:28.036Z,19.34
2022-10-28T15:20:00.072Z,19.33
2022-10-28T15:22:32.055Z,19.25
2022-10-28T15:25:03.100Z,19.19
2022-10-28T15:27:33.688Z,19.07
2022-10-28T15:30:03.047Z,18.99
2022-10-28T15:32:36.377Z,18.98
2022-10-28T15:35:39.409Z,18.94
2022-10-28T15:38:39.106Z,18.83
2022-10-28T15:41:49.354Z,18.87
2022-10-28T15:44:32.462Z,18.89
2022-10-28T15:47:05.528Z,18.79
2022-10-28T15:49:40.372Z,18.66
2022-10-28T15:52:42.280Z,18.51
2022-10-28T15:55:47.838Z,18.53
2022-10-28T15:58:36.747Z,18.48
2022-10-28T16:01:10.978Z,18.43
2022-10-28T16:03:51.078Z,18.31
2022-10-28T16:06:24.942Z,18.23
2022-10-28T16:09:12.753Z,18.25
2022-10-28T16:11:45.415Z,18.16
2022-10-28T16:14:34.943Z,18.26
2022-10-28T16:17:12.684Z,18.33
2022-10-28T16:19:44.983Z,18.23
2022-10-28T16:22:15.236Z,18.12
2022-10-28T16:24:45.705Z,18.09
2022-10-28T16:27:23.206Z,18.10
2022-10-28T16:29:53.003Z,18.04
2022-10-28T16:32:28.829Z,17.99
2022-10-28T16:34:58.595Z,17.92
2022-10-28T16:37:29.817Z,17.97
2022-10-28T16:40:00.140Z,17.92
2022-10-28T16:42:29.147Z,17.82
2022-10-28T16:44:58.298Z,17.74
2022-10-28T16:47:27.444Z,17.76
2022-10-28T16:49:57.830Z,17.72
2022-10-28T16:52:29.653Z,17.80
2022-10-28T16:55:00.351Z,17.76
2022-10-28T16:57:29.596Z,17.69
2022-10-28T16:59:58.606Z,17.67
2022-10-28T17:02:31.581Z,17.57
2022-10-28T17:05:04.894Z,17.54
2022-10-28T17:07:33.933Z,17.54
2022-10-28T17:10:04.649Z,17.42
2022-10-28T17:12:33.582Z,17.34
2022-10-28T17:15:02.537Z,17.39
2022-10-28T17:17:31.578Z,17.32
2022-10-28T17:20:00.571Z,17.42
2022-10-28T17:22:29.499Z,17.49
2022-10-28T17:24:58.567Z,17.64
2022-10-28T17:27:28.912Z,17.59
2022-10-28T17:29:57.992Z,17.60
2022-10-28T17:32:27.279Z,17.58
2022-10-28T17:34:56.209Z,17.63
2022-10-28T17:37:25.147Z,17.69
2022-10-28T17:42:29.365Z,17.89
2022-10-28T17:44:58.347Z,17.90
2022-10-28T17:47:27.214Z,17.94
2022-10-28T17:49:56.395Z,18.02
2022-10-28T17:52:25.469Z,18.18
2022-10-28T17:54:54.845Z,18.44
2022-10-28T17:57:23.817Z,18.36
2022-10-28T17:59:54.059Z,18.22
2022-10-28T18:02:23.603Z,18.20
2022-10-28T18:04:52.678Z,18.37
2022-10-28T18:07:21.633Z,18.32
2022-10-28T18:09:50.552Z,18.60
2022-10-28T18:12:19.547Z,18.62
2022-10-28T18:14:48.526Z,18.62
2022-10-28T18:17:18.956Z,18.53
2022-10-28T18:19:47.847Z,18.65
2022-10-28T18:22:16.963Z,18.69
2022-10-28T18:24:45.939Z,18.67
2022-10-28T18:27:14.957Z,18.84
2022-10-28T18:29:44.392Z,18.73
2022-10-28T18:32:13.530Z,18.66
2022-10-28T18:34:43.856Z,18.68
2022-10-28T18:37:13.032Z,18.57
2022-10-28T18:39:42.255Z,18.61
2022-10-28T18:42:12.416Z,18.44
2022-10-28T18:44:41.918Z,18.58
2022-10-28T18:47:10.834Z,18.38
2022-10-28T18:49:39.846Z,18.53
2022-10-28T18:52:10.132Z,18.42
2022-10-28T18:54:39.044Z,18.41
2022-10-28T18:57:07.972Z,18.56
2022-10-28T18:59:43.178Z,18.52
2022-10-28T19:02:16.544Z,18.41
2022-10-28T19:04:45.623Z,18.40
2022-10-28T19:07:16.010Z,18.35
2022-10-28T19:09:44.930Z,18.30
2022-10-28T19:12:14.002Z,18.23
2022-10-28T19:14:42.906Z,18.17
2022-10-28T19:17:12.387Z,18.34
2022-10-28T19:19:41.279Z,18.20
2022-10-28T19:22:10.246Z,18.15
2022-10-28T19:24:40.570Z,18.02
2022-10-28T19:27:09.618Z,18.06
2022-10-28T19:29:38.937Z,17.99
2022-10-28T19:32:07.925Z,18.03
2022-10-28T19:34:37.025Z,17.77
2022-10-28T19:37:05.939Z,18.00
2022-10-28T19:39:34.883Z,18.00
2022-10-28T19:42:05.208Z,18.03
2022-10-28T19:44:34.113Z,17.92
2022-10-28T19:47:03.083Z,17.96
2022-10-28T19:49:37.228Z,18.03
2022-10-28T19:52:07.277Z,18.08
2022-10-28T19:54:36.210Z,17.94
2022-10-28T19:57:06.636Z,17.85
2022-10-28T19:59:35.599Z,17.77
2022-10-28T20:02:05.773Z,17.64
2022-10-28T20:04:34.918Z,17.71
2022-10-28T20:07:06.732Z,17.64
2022-10-28T20:09:35.721Z,17.79
2022-10-28T20:12:06.434Z,17.74
2022-10-28T20:14:35.881Z,17.82
2022-10-28T20:17:06.713Z,17.85
2022-10-28T20:19:35.929Z,17.83
2022-10-28T20:22:05.158Z,17.97
2022-10-28T20:24:34.245Z,17.93
2022-10-28T20:27:03.277Z,17.88
2022-10-28T20:29:33.616Z,18.00
2022-10-28T20:32:02.695Z,17.84
2022-10-28T20:34:31.604Z,17.80
2022-10-28T20:37:00.857Z,17.83
2022-10-28T20:39:29.987Z,17.74
2022-10-28T20:41:58.938Z,17.74
2022-10-28T20:44:28.700Z,17.75
2022-10-28T20:46:59.015Z,17.78
2022-10-28T20:49:27.956Z,17.71
2022-10-28T20:51:56.850Z,17.74
2022-10-28T20:54:25.765Z,17.73
2022-10-28T20:56:54.728Z,17.64
2022-10-28T20:59:23.871Z,17.58
2022-10-28T21:01:53.052Z,17.60
2022-10-28T21:04:23.957Z,17.65
2022-10-28T21:06:53.022Z,17.66
2022-10-28T21:09:21.982Z,17.64
2022-10-28T21:11:50.907Z,17.52
2022-10-28T21:14:20.272Z,17.51
2022-10-28T21:16:51.466Z,17.50
2022-10-28T21:19:21.787Z,17.48
2022-10-28T21:21:50.829Z,17.49
2022-10-28T21:24:19.844Z,17.44
2022-10-28T21:26:52.238Z,17.26
2022-10-28T21:29:21.225Z,17.23
2022-10-28T21:31:51.454Z,17.21
2022-10-28T21:34:21.688Z,17.13
2022-10-28T21:36:50.881Z,17.19
2022-10-28T21:39:25.876Z,17.09
2022-10-28T21:41:54.776Z,17.06
2022-10-28T21:44:23.783Z,17.07
2022-10-28T21:46:54.667Z,17.05
2022-10-28T21:49:25.042Z,16.95
2022-10-28T21:51:54.085Z,16.91
2022-10-28T21:54:23.118Z,16.95
2022-10-28T21:56:52.728Z,16.98
2022-10-28T21:59:21.755Z,17.06
2022-10-28T22:01:50.932Z,17.00
2022-10-28T22:04:19.915Z,16.93
2022-10-28T22:06:50.238Z,16.87
2022-10-28T22:09:19.237Z,16.84
2022-10-28T22:11:48.164Z,16.82
2022-10-28T22:14:17.418Z,16.78
2022-10-28T22:16:46.360Z,16.72
2022-10-28T22:19:16.148Z,16.62
2022-10-28T22:21:45.302Z,16.57
2022-10-28T22:24:15.715Z,16.53
2022-10-28T22:26:44.813Z,16.44
2022-10-28T22:29:13.992Z,16.36
2022-10-28T22:31:43.008Z,16.40
2022-10-28T22:34:12.000Z,16.42
2022-10-28T22:36:43.143Z,16.33
2022-10-28T22:39:12.328Z,16.26
2022-10-28T22:41:42.647Z,16.21
2022-10-28T22:44:11.666Z,16.13
2022-10-28T22:46:41.077Z,16.10
2022-10-28T22:49:10.046Z,16.10
2022-10-28T22:51:39.023Z,15.98
2022-10-28T22:54:08.137Z,15.94
2022-10-28T22:56:37.071Z,15.92
2022-10-28T22:59:07.606Z,15.81
2022-10-28T23:01:36.628Z,15.78
2022-10-28T23:04:09.966Z,15.69
2022-10-28T23:06:38.970Z,15.74
2022-10-28T23:09:07.908Z,15.66
2022-10-28T23:11:37.273Z,15.68
2022-10-28T23:14:07.753Z,15.49
2022-10-28T23:16:36.704Z,15.54
2022-10-28T23:19:05.755Z,15.45
2022-10-28T23:21:34.809Z,15.34
2022-10-28T23:24:03.717Z,15.37
2022-10-28T23:26:32.700Z,15.28
2022-10-28T23:29:01.905Z,15.25
2022-10-28T23:31:32.230Z,15.22
2022-10-28T23:34:01.717Z,15.15
2022-10-28T23:36:30.604Z,15.11
2022-10-28T23:38:59.515Z,15.03
2022-10-28T23:41:28.443Z,15.05
2022-10-28T23:44:00.429Z,15.12
2022-10-28T23:46:36.492Z,15.07
2022-10-28T23:49:06.521Z,14.98
2022-10-28T23:51:35.473Z,14.90
2022-10-28T23:54:04.472Z,14.79
2022-10-28T23:56:33.384Z,14.74
2022-10-28T23:59:02.302Z,14.71
